Petersburg, AK

4:50 AM AKDT on April 18, 2015 (GMT -0800)
RAWS | | Change Station
CLOSE
Current Station
Personal Weather Station
Location: Kake, AK
Elevation: 399 ft
Nearby Weather Stations

Elev 399 ft 56.97 °N, 133.66 °W | Updated 55 minutes ago

Mostly Cloudy
Mostly Cloudy
37 °F
Feels Like 34 °F
N
4
Wind Variable Wind from North
Gusts 11.0 mph

Today
High -- | Low -- °F
--% Chance of Precip.
Yesterday
High -- | Low -- °F
Precip. -- in
5:37 AM 8:08 PM
Waning Crescent, 0% visible
Pressure 30.47 in
Visibility 10.0 miles
Clouds Few 2800 ft
Mostly Cloudy 3700 ft
Windchill 34 °F
Dew Point 34 °F
Humidity 90%
Rainfall in
Snow Depth Not available.
UV 0 out of 12
Pollen Not available.
Air Quality Not available.
Flu Activity Sporadic
METAR PAFE 181236Z AUTO 11009KT 10SM FEW028 BKN037 03/02 A3047 RMK AO1 P0001

More Conditions Fewer Conditions

Pressure 30.47 in
Visibility 10.0 miles
Clouds Few 2800 ft
Mostly Cloudy 3700 ft
Windchill 34 °F
Dew Point 34 °F
Humidity 90%
Rainfall in
Snow Depth Not available.
UV 0 out of 12
Pollen Not available.
Air Quality Not available.
Flu Activity Sporadic
METAR PAFE 181236Z AUTO 11009KT 10SM FEW028 BKN037 03/02 A3047 RMK AO1 P0001

More Conditions Fewer Conditions

10-Day Weather Forecast

Almanac

Astronomy

Apr. 18, 2015 Rise Set
Actual Time
Civil Twilight
Nautical Twilight
Astronomical Twilight
Moon
Length of Visible Light
Length of Day
Tomorrow will be .
, % of the Moon is Illuminated

Today's Extremes

State Highs State Lows

Community

WunderPhotos

Upload Photos

1,814,377 photos uploaded!

WunderBlogs® & News

Nearby

Air Quality

  Air Quality AQ Index Pollutant
Not available.

Snow Depth

Station Depth Elevation

Earthquake Activity

City Distance Mag. Time & Date
Minimum magnitude displayed is 2.5.

Coastal Water Temperatures

Place Temperature

Stations

Nearby Weather Stations

Station Location Temp. Windchill Dew Point Humidity Wind Precip. Elev Updated Type